createdAt,value
2018-12-03T00:00:58.387Z,7.80
2018-12-03T00:01:58.380Z,7.70
2018-12-03T00:02:58.373Z,8.60
2018-12-03T00:03:58.368Z,8.40
2018-12-03T00:04:58.335Z,8.90
2018-12-03T00:05:58.319Z,7.60
2018-12-03T00:06:58.314Z,8.70
2018-12-03T00:07:58.302Z,7.70
2018-12-03T00:08:58.290Z,9.60
2018-12-03T00:09:58.274Z,8.10
2018-12-03T00:10:58.266Z,7.60
2018-12-03T00:11:58.250Z,8.30
2018-12-03T00:12:58.240Z,8.40
2018-12-03T00:13:58.231Z,11.10
2018-12-03T00:14:58.227Z,8.30
2018-12-03T00:15:58.209Z,9.60
2018-12-03T00:16:58.196Z,9.00
2018-12-03T00:17:58.188Z,8.60
2018-12-03T00:18:58.174Z,7.80
2018-12-03T00:19:58.176Z,8.50
2018-12-03T00:20:58.156Z,7.50
2018-12-03T00:21:58.138Z,7.60
2018-12-03T00:22:58.126Z,6.60
2018-12-03T00:23:58.115Z,8.00
2018-12-03T00:24:58.112Z,6.80
2018-12-03T00:26:17.759Z,7.30
2018-12-03T00:27:40.129Z,6.30
2018-12-03T00:28:40.117Z,6.50
2018-12-03T00:29:40.117Z,6.80
2018-12-03T00:30:40.090Z,6.70
2018-12-03T00:31:40.085Z,7.00
2018-12-03T00:32:40.074Z,8.10
2018-12-03T00:33:40.065Z,8.00
2018-12-03T00:34:40.049Z,7.20
2018-12-03T00:35:40.062Z,7.20
2018-12-03T00:36:40.028Z,7.00
2018-12-03T00:37:40.012Z,6.60
2018-12-03T00:40:08.967Z,7.60
2018-12-03T00:41:27.595Z,7.00
2018-12-03T00:42:27.441Z,7.60
2018-12-03T00:43:50.975Z,7.70
2018-12-03T00:44:50.968Z,7.20
2018-12-03T00:45:50.955Z,7.80
2018-12-03T00:46:50.938Z,8.50
2018-12-03T00:47:50.929Z,8.60
2018-12-03T00:48:50.922Z,7.00
2018-12-03T00:49:50.909Z,7.70
2018-12-03T00:51:10.569Z,8.00
2018-12-03T00:52:32.947Z,8.70
2018-12-03T00:53:32.927Z,9.10
2018-12-03T00:54:32.922Z,10.10
2018-12-03T00:55:32.926Z,12.00
2018-12-03T00:56:32.935Z,11.90
2018-12-03T00:57:32.889Z,14.80
2018-12-03T00:58:32.884Z,14.60
2018-12-03T00:59:32.867Z,18.00
2018-12-03T01:00:32.873Z,20.40
2018-12-03T01:01:32.845Z,20.70
2018-12-03T01:02:32.833Z,22.60
2018-12-03T01:03:32.828Z,23.70
2018-12-03T01:04:32.819Z,22.70
2018-12-03T01:05:32.804Z,21.80
2018-12-03T01:06:32.802Z,19.60
2018-12-03T01:07:32.778Z,19.80
2018-12-03T01:08:32.770Z,18.70
2018-12-03T01:09:32.766Z,19.20
2018-12-03T01:10:32.752Z,18.70
2018-12-03T01:11:32.736Z,19.80
2018-12-03T01:12:32.734Z,20.60
2018-12-03T01:13:32.707Z,25.10
2018-12-03T01:14:32.700Z,24.90
2018-12-03T01:15:32.686Z,26.90
2018-12-03T01:16:32.678Z,24.70
2018-12-03T01:17:32.668Z,26.50
2018-12-03T01:18:32.651Z,28.70
2018-12-03T01:19:32.641Z,28.30
2018-12-03T01:20:32.634Z,28.80
2018-12-03T01:21:32.622Z,30.10
2018-12-03T01:22:32.609Z,32.20
2018-12-03T01:23:32.600Z,30.30
2018-12-03T01:24:32.587Z,31.20
2018-12-03T01:25:32.578Z,29.10
2018-12-03T01:26:32.562Z,28.00
2018-12-03T01:27:32.552Z,24.70
2018-12-03T01:28:32.552Z,24.60
2018-12-03T01:29:32.533Z,21.00
2018-12-03T01:30:32.526Z,19.60
2018-12-03T01:31:32.512Z,17.50
2018-12-03T01:32:32.496Z,15.60
2018-12-03T01:33:32.491Z,12.50
2018-12-03T01:34:32.479Z,12.70
2018-12-03T01:35:32.471Z,12.20
2018-12-03T01:36:32.456Z,11.90
2018-12-03T01:37:32.446Z,12.90
2018-12-03T01:38:53.092Z,12.00
2018-12-03T01:40:14.478Z,11.60
2018-12-03T01:41:34.096Z,11.90
2018-12-03T01:42:56.514Z,10.20
2018-12-03T01:43:56.487Z,10.00
2018-12-03T01:44:56.484Z,9.50
2018-12-03T01:45:56.470Z,9.80
2018-12-03T01:46:56.494Z,10.70
2018-12-03T01:47:56.451Z,9.00
2018-12-03T01:48:56.436Z,8.70
2018-12-03T01:49:56.450Z,8.90
2018-12-03T01:50:56.411Z,10.30
2018-12-03T01:51:56.410Z,8.60
2018-12-03T01:52:56.393Z,9.00
2018-12-03T01:53:56.378Z,9.40
2018-12-03T01:54:56.375Z,9.10
2018-12-03T01:55:56.365Z,9.20
2018-12-03T01:56:56.352Z,8.50
2018-12-03T01:57:56.347Z,8.50
2018-12-03T01:58:56.327Z,9.60
2018-12-03T01:59:56.323Z,9.20
2018-12-03T02:00:56.304Z,8.70
2018-12-03T02:01:56.289Z,8.00
2018-12-03T02:02:56.278Z,8.00
2018-12-03T02:03:56.273Z,8.50
2018-12-03T02:04:56.312Z,8.30
2018-12-03T02:05:56.245Z,7.50
2018-12-03T02:06:56.235Z,7.80
2018-12-03T02:07:56.222Z,8.30
2018-12-03T02:09:14.373Z,7.50
2018-12-03T02:12:26.345Z,8.30
2018-12-03T02:14:33.799Z,7.70
2018-12-03T02:15:33.784Z,8.80
2018-12-03T02:16:33.774Z,8.50
2018-12-03T02:17:33.784Z,7.10
2018-12-03T02:18:33.755Z,7.00
2018-12-03T02:19:33.743Z,8.50
2018-12-03T02:20:33.740Z,8.50
2018-12-03T02:21:33.713Z,7.00
2018-12-03T02:22:33.708Z,6.70
2018-12-03T02:23:52.359Z,6.90
2018-12-03T02:24:33.688Z,7.50
2018-12-03T02:25:33.672Z,8.20
2018-12-03T02:26:33.658Z,9.10
2018-12-03T02:27:33.650Z,8.00
2018-12-03T02:28:33.649Z,9.80
2018-12-03T02:29:54.939Z,10.60
2018-12-03T02:31:05.612Z,11.50
2018-12-03T02:32:05.592Z,13.00
2018-12-03T02:33:48.671Z,21.20
2018-12-03T02:34:48.640Z,23.80
2018-12-03T02:35:48.625Z,25.30
2018-12-03T02:36:48.631Z,32.80
2018-12-03T02:37:48.655Z,31.70
2018-12-03T02:38:48.600Z,35.50
2018-12-03T02:39:48.597Z,33.50
2018-12-03T02:40:48.577Z,38.90
2018-12-03T02:41:48.561Z,38.50
2018-12-03T02:42:48.554Z,36.20
2018-12-03T02:43:48.579Z,36.90
2018-12-03T02:44:48.544Z,31.00
2018-12-03T02:45:48.525Z,31.70
2018-12-03T02:46:48.510Z,30.90
2018-12-03T02:47:48.502Z,29.10
2018-12-03T02:48:48.483Z,26.10
2018-12-03T02:49:48.470Z,27.70
2018-12-03T02:50:48.462Z,25.60
2018-12-03T02:51:48.461Z,26.40
2018-12-03T02:52:48.448Z,27.10
2018-12-03T02:53:48.427Z,25.00
2018-12-03T02:54:48.420Z,26.00
2018-12-03T02:55:48.415Z,27.00
2018-12-03T02:56:48.401Z,25.00
2018-12-03T02:57:48.385Z,22.40
2018-12-03T02:58:48.375Z,21.90
2018-12-03T02:59:48.358Z,21.80
2018-12-03T03:00:48.355Z,23.00
2018-12-03T03:01:48.340Z,25.30
2018-12-03T03:02:48.330Z,27.40
2018-12-03T03:03:48.409Z,28.90
2018-12-03T03:04:48.311Z,30.10
2018-12-03T03:05:48.295Z,29.00
2018-12-03T03:06:48.290Z,29.40
2018-12-03T03:07:48.275Z,30.50
2018-12-03T03:08:48.264Z,31.20
2018-12-03T03:09:48.247Z,30.30
2018-12-03T03:10:48.244Z,24.40
2018-12-03T03:11:48.239Z,23.30
2018-12-03T03:12:48.213Z,20.00
2018-12-03T03:13:48.213Z,16.00
2018-12-03T03:14:48.197Z,14.60
2018-12-03T03:15:48.181Z,13.20
2018-12-03T03:16:48.169Z,12.80
2018-12-03T03:17:48.166Z,12.50
2018-12-03T03:18:48.150Z,13.10
2018-12-03T03:19:48.143Z,10.50
2018-12-03T03:20:48.125Z,9.90
2018-12-03T03:21:48.119Z,8.30
2018-12-03T03:22:48.110Z,7.60
2018-12-03T03:23:48.102Z,8.30
2018-12-03T03:24:48.081Z,7.50
2018-12-03T03:25:48.071Z,7.50
2018-12-03T03:26:48.059Z,6.80
2018-12-03T03:27:48.053Z,6.60
2018-12-03T03:28:48.053Z,6.20
2018-12-03T03:29:48.029Z,7.60
2018-12-03T03:30:48.023Z,7.50
2018-12-03T03:31:48.028Z,6.20
2018-12-03T03:32:47.998Z,5.60
2018-12-03T03:33:47.992Z,5.30
2018-12-03T03:34:47.977Z,5.60
2018-12-03T03:35:47.964Z,6.00
2018-12-03T03:36:47.959Z,6.00
2018-12-03T03:37:47.936Z,5.80
2018-12-03T03:38:47.926Z,5.90
2018-12-03T03:39:47.914Z,5.80
2018-12-03T03:40:47.902Z,6.30
2018-12-03T03:41:47.895Z,6.00
2018-12-03T03:42:47.883Z,5.70
2018-12-03T03:43:47.870Z,6.10
2018-12-03T03:44:47.870Z,6.00
2018-12-03T03:45:47.851Z,6.60
2018-12-03T03:46:47.841Z,8.70
2018-12-03T03:47:47.834Z,5.90
2018-12-03T03:48:47.829Z,6.70
2018-12-03T03:49:47.802Z,6.40
2018-12-03T03:50:47.797Z,8.30
2018-12-03T03:51:47.789Z,6.90
2018-12-03T03:52:47.770Z,7.30
2018-12-03T03:53:47.760Z,7.90
2018-12-03T03:54:47.748Z,7.20
2018-12-03T03:55:47.737Z,8.00
2018-12-03T03:56:47.730Z,7.60
2018-12-03T03:57:47.715Z,8.00
2018-12-03T03:58:47.703Z,7.60
2018-12-03T03:59:47.695Z,7.60
2018-12-03T04:00:47.693Z,8.70
2018-12-03T04:01:47.684Z,8.20
2018-12-03T04:02:47.683Z,8.30
2018-12-03T04:03:47.675Z,8.80
2018-12-03T04:04:47.636Z,8.40
2018-12-03T04:05:47.632Z,9.90
2018-12-03T04:06:47.618Z,8.90
2018-12-03T04:07:47.617Z,8.70
2018-12-03T04:08:47.592Z,10.20
2018-12-03T04:09:47.582Z,9.10
2018-12-03T04:10:47.572Z,9.50
2018-12-03T04:11:47.565Z,10.60
2018-12-03T04:12:47.561Z,10.50
2018-12-03T04:13:47.552Z,10.40
2018-12-03T04:14:47.527Z,10.00
2018-12-03T04:15:47.514Z,11.00
2018-12-03T04:16:47.504Z,10.40
2018-12-03T04:17:47.493Z,10.10
2018-12-03T04:18:47.487Z,11.50
2018-12-03T04:19:47.470Z,10.50
2018-12-03T04:20:47.460Z,11.50
2018-12-03T04:21:47.451Z,13.30
2018-12-03T04:22:47.439Z,11.60
2018-12-03T04:23:47.427Z,11.10
2018-12-03T04:24:47.415Z,11.40
2018-12-03T04:25:47.411Z,11.90
2018-12-03T04:26:47.397Z,12.10
2018-12-03T04:27:47.457Z,12.50
2018-12-03T04:28:47.384Z,11.40
2018-12-03T04:29:47.369Z,12.30
2018-12-03T04:30:47.363Z,11.40
2018-12-03T04:31:47.350Z,11.20
2018-12-03T04:32:47.337Z,12.30
2018-12-03T04:33:47.325Z,11.90
2018-12-03T04:34:47.312Z,13.90
2018-12-03T04:35:47.317Z,12.20
2018-12-03T04:36:47.308Z,12.30
2018-12-03T04:37:47.279Z,12.90
2018-12-03T04:38:47.274Z,13.80
2018-12-03T04:39:47.262Z,15.30
2018-12-03T04:40:47.239Z,18.00
2018-12-03T04:41:47.236Z,16.00
2018-12-03T04:42:47.217Z,13.60
2018-12-03T04:43:47.213Z,11.00
2018-12-03T04:44:47.193Z,12.20
2018-12-03T04:45:47.185Z,10.10
2018-12-03T04:46:47.174Z,12.00
2018-12-03T04:47:47.166Z,11.20
2018-12-03T04:49:05.320Z,12.70
2018-12-03T04:50:18.317Z,11.10
2018-12-03T04:51:18.304Z,11.90
2018-12-03T04:52:18.347Z,12.80
2018-12-03T04:53:18.283Z,11.20
2018-12-03T04:54:18.269Z,10.80
2018-12-03T04:55:18.263Z,10.40
2018-12-03T04:56:18.251Z,11.50
2018-12-03T04:57:18.237Z,12.80
2018-12-03T04:58:18.231Z,12.20
2018-12-03T04:59:18.224Z,11.30
2018-12-03T05:00:18.214Z,11.40
2018-12-03T05:01:18.201Z,11.00
2018-12-03T05:02:18.219Z,10.30
2018-12-03T05:03:18.173Z,12.70
2018-12-03T05:04:18.157Z,12.10
2018-12-03T05:05:18.150Z,11.40
2018-12-03T05:06:18.134Z,13.40
2018-12-03T05:07:18.141Z,12.70
2018-12-03T05:08:18.115Z,12.90
2018-12-03T05:09:18.108Z,12.50
2018-12-03T05:10:18.110Z,11.50
2018-12-03T05:11:18.092Z,11.20
2018-12-03T05:12:18.080Z,10.80
2018-12-03T05:13:18.077Z,11.80
2018-12-03T05:14:18.055Z,14.60
2018-12-03T05:15:18.046Z,11.80
2018-12-03T05:16:18.025Z,11.90
2018-12-03T05:17:18.022Z,11.30
2018-12-03T05:18:18.004Z,11.10
2018-12-03T05:19:17.996Z,11.40
2018-12-03T05:20:17.989Z,12.70
2018-12-03T05:21:17.974Z,10.90
2018-12-03T05:22:17.964Z,11.60
2018-12-03T05:23:17.953Z,13.40
2018-12-03T05:24:17.940Z,10.70
2018-12-03T05:25:19.518Z,11.90
2018-12-03T05:26:17.921Z,14.30
2018-12-03T05:27:17.910Z,12.50
2018-12-03T05:28:17.898Z,12.70
2018-12-03T05:29:17.884Z,12.00
2018-12-03T05:30:17.880Z,11.90
2018-12-03T05:31:17.862Z,12.30
2018-12-03T05:32:17.852Z,11.80
2018-12-03T05:33:17.836Z,14.90
2018-12-03T05:34:17.824Z,12.10
2018-12-03T05:35:37.460Z,12.20
2018-12-03T05:37:00.073Z,10.10
2018-12-03T05:38:00.044Z,12.40
2018-12-03T05:39:00.034Z,11.70
2018-12-03T05:40:00.225Z,12.20
2018-12-03T05:42:27.477Z,11.90
2018-12-03T05:43:46.098Z,11.30
2018-12-03T05:45:55.044Z,15.30
2018-12-03T05:47:14.643Z,12.60
2018-12-03T05:48:37.068Z,9.70
2018-12-03T05:49:37.063Z,10.50
2018-12-03T05:50:37.047Z,13.40
2018-12-03T05:51:37.027Z,11.20
2018-12-03T05:52:37.022Z,10.50
2018-12-03T05:53:37.012Z,11.40
2018-12-03T05:54:37.001Z,12.00
2018-12-03T05:55:36.991Z,11.10
2018-12-03T05:56:36.991Z,9.80
2018-12-03T05:57:36.975Z,10.60
2018-12-03T05:58:36.963Z,9.70
2018-12-03T05:59:36.944Z,11.30
2018-12-03T06:00:36.958Z,9.50
2018-12-03T06:01:36.919Z,11.10
2018-12-03T06:02:36.911Z,10.80
2018-12-03T06:03:36.896Z,11.00
2018-12-03T06:04:36.957Z,13.20
2018-12-03T06:05:36.889Z,10.80
2018-12-03T06:06:36.867Z,10.70
2018-12-03T06:07:36.862Z,10.90
2018-12-03T06:08:36.859Z,9.50
2018-12-03T06:09:36.836Z,10.80
2018-12-03T06:10:36.828Z,11.60
2018-12-03T06:11:36.821Z,11.40
2018-12-03T06:12:36.804Z,10.90
2018-12-03T06:13:36.804Z,13.60
2018-12-03T06:14:36.782Z,12.00
2018-12-03T06:15:36.779Z,10.30
2018-12-03T06:16:36.761Z,11.00
2018-12-03T06:17:36.751Z,12.90
2018-12-03T06:18:36.736Z,11.50
2018-12-03T06:19:36.722Z,13.50
2018-12-03T06:20:36.728Z,14.00
2018-12-03T06:21:36.729Z,13.80
2018-12-03T06:22:36.694Z,15.50
2018-12-03T06:23:36.684Z,16.40
2018-12-03T06:24:36.675Z,17.40
2018-12-03T06:25:36.663Z,19.60
2018-12-03T06:26:36.650Z,18.50
2018-12-03T06:27:36.632Z,16.50
2018-12-03T06:28:36.623Z,16.90
2018-12-03T06:29:36.605Z,13.50
2018-12-03T06:30:36.594Z,15.30
2018-12-03T06:31:36.589Z,13.10
2018-12-03T06:32:36.579Z,15.00
2018-12-03T06:33:36.567Z,11.90
2018-12-03T06:34:36.570Z,11.40
2018-12-03T06:35:36.546Z,11.80
2018-12-03T06:36:36.537Z,9.80
2018-12-03T06:37:36.524Z,9.70
2018-12-03T06:38:36.710Z,11.00
2018-12-03T06:39:36.517Z,11.10
2018-12-03T06:40:36.489Z,11.20
2018-12-03T06:41:36.485Z,11.20
2018-12-03T06:42:36.469Z,10.70
2018-12-03T06:43:36.457Z,11.40
2018-12-03T06:44:36.446Z,11.20
2018-12-03T06:45:36.455Z,11.30
2018-12-03T06:46:36.429Z,11.80
2018-12-03T06:47:36.414Z,12.60
2018-12-03T06:48:36.400Z,12.50
2018-12-03T06:49:36.395Z,11.60
2018-12-03T06:50:36.392Z,12.10
2018-12-03T06:51:36.381Z,10.30
2018-12-03T06:52:36.365Z,11.50
2018-12-03T06:53:36.345Z,11.00
2018-12-03T06:54:36.341Z,11.70
2018-12-03T06:55:36.340Z,12.80
2018-12-03T06:56:36.332Z,11.70
2018-12-03T06:57:36.305Z,10.50
2018-12-03T06:58:36.292Z,10.70
2018-12-03T06:59:36.278Z,12.60
2018-12-03T07:00:36.270Z,10.90
2018-12-03T07:01:36.265Z,10.50
2018-12-03T07:02:36.270Z,12.60
2018-12-03T07:03:36.233Z,11.80
2018-12-03T07:04:36.223Z,10.60
2018-12-03T07:05:36.228Z,10.90
2018-12-03T07:06:36.214Z,10.80
2018-12-03T07:07:36.225Z,10.60
2018-12-03T07:08:36.182Z,11.00
2018-12-03T07:09:36.172Z,9.50
2018-12-03T07:10:36.161Z,9.60
2018-12-03T07:11:36.156Z,13.10
2018-12-03T07:12:36.140Z,12.40
2018-12-03T07:13:36.137Z,10.30
2018-12-03T07:14:36.121Z,10.70
2018-12-03T07:15:36.111Z,11.40
2018-12-03T07:16:36.095Z,11.20
2018-12-03T07:17:36.081Z,10.20
2018-12-03T07:18:36.077Z,10.70
2018-12-03T07:19:36.067Z,10.70
2018-12-03T07:20:36.054Z,11.60
2018-12-03T07:21:36.041Z,10.90
2018-12-03T07:22:36.037Z,12.00
2018-12-03T07:23:36.022Z,13.40
2018-12-03T07:24:36.014Z,10.20
2018-12-03T07:25:35.995Z,10.60
2018-12-03T07:26:35.991Z,11.30
2018-12-03T07:27:35.974Z,9.30
2018-12-03T07:28:35.962Z,9.60
2018-12-03T07:29:35.963Z,8.90
2018-12-03T07:30:35.939Z,10.30
2018-12-03T07:31:35.935Z,9.60
2018-12-03T07:32:35.925Z,9.40
2018-12-03T07:33:35.909Z,10.70
2018-12-03T07:34:35.898Z,10.60
2018-12-03T07:35:35.903Z,11.40
2018-12-03T07:36:35.874Z,10.50
2018-12-03T07:37:35.856Z,10.10
2018-12-03T07:38:35.848Z,13.80
2018-12-03T07:39:35.843Z,11.50
2018-12-03T07:40:35.832Z,11.60
2018-12-03T07:41:35.819Z,11.20
2018-12-03T07:42:35.808Z,11.60
2018-12-03T07:43:35.792Z,10.30
2018-12-03T07:44:35.773Z,9.60
2018-12-03T07:45:35.773Z,11.70
2018-12-03T07:46:35.768Z,11.40
2018-12-03T07:47:35.739Z,13.40
2018-12-03T07:48:35.732Z,11.40
2018-12-03T07:49:35.726Z,11.80
2018-12-03T07:50:35.707Z,13.80
2018-12-03T07:51:35.703Z,14.50
2018-12-03T07:52:36.710Z,14.50
2018-12-03T07:53:35.675Z,11.90
2018-12-03T07:54:35.666Z,13.40
2018-12-03T07:55:35.652Z,14.60
2018-12-03T07:56:35.650Z,15.50
2018-12-03T07:57:35.633Z,13.80
2018-12-03T07:58:35.619Z,15.20
2018-12-03T07:59:35.609Z,15.90
2018-12-03T08:00:35.600Z,15.20
2018-12-03T08:01:35.592Z,16.60
2018-12-03T08:02:56.261Z,18.80
2018-12-03T08:04:29.905Z,16.80
2018-12-03T08:05:49.933Z,18.10
2018-12-03T08:07:02.056Z,13.90
2018-12-03T08:08:02.046Z,16.10
2018-12-03T08:09:21.685Z,18.20
2018-12-03T08:10:44.090Z,15.30
2018-12-03T08:13:23.294Z,16.50
2018-12-03T08:14:23.285Z,16.50
2018-12-03T08:15:23.304Z,15.60
2018-12-03T08:16:23.262Z,14.30
2018-12-03T08:17:23.249Z,14.50
2018-12-03T08:18:23.230Z,13.60
2018-12-03T08:19:23.223Z,17.20
2018-12-03T08:20:23.214Z,13.40
2018-12-03T08:21:23.207Z,17.70
2018-12-03T08:22:23.186Z,17.40
2018-12-03T08:23:23.182Z,15.20
2018-12-03T08:24:23.233Z,14.90
2018-12-03T08:25:43.670Z,13.20
2018-12-03T08:27:05.186Z,13.20
2018-12-03T08:28:05.193Z,11.60
2018-12-03T08:29:05.169Z,10.90
2018-12-03T08:30:05.160Z,12.40
2018-12-03T08:31:05.159Z,13.00
2018-12-03T08:32:05.140Z,11.60
2018-12-03T08:33:05.128Z,14.70
2018-12-03T08:34:05.114Z,13.80
2018-12-03T08:35:05.098Z,12.60
2018-12-03T08:36:24.720Z,12.60
2018-12-03T08:37:47.130Z,9.80
2018-12-03T08:38:47.120Z,13.20
2018-12-03T08:39:47.108Z,11.30
2018-12-03T08:40:47.104Z,12.60
2018-12-03T08:41:47.109Z,12.70
2018-12-03T08:42:47.074Z,10.60
2018-12-03T08:43:47.061Z,12.60
2018-12-03T08:44:47.051Z,12.20
2018-12-03T08:45:47.035Z,10.00
2018-12-03T08:46:47.032Z,11.20
2018-12-03T08:47:47.019Z,11.20
2018-12-03T08:48:47.007Z,11.10
2018-12-03T08:49:46.996Z,10.50
2018-12-03T08:50:46.985Z,11.00
2018-12-03T08:51:46.967Z,10.50
2018-12-03T08:52:46.963Z,12.70
2018-12-03T08:53:46.953Z,11.20
2018-12-03T08:54:46.937Z,10.50
2018-12-03T08:55:46.922Z,9.80
2018-12-03T08:56:46.914Z,9.50
2018-12-03T08:57:46.909Z,10.30
2018-12-03T08:58:46.895Z,10.90
2018-12-03T08:59:46.882Z,10.40
2018-12-03T09:00:46.907Z,10.60
2018-12-03T09:01:46.881Z,9.70
2018-12-03T09:02:46.860Z,10.20
2018-12-03T09:03:46.850Z,10.70
2018-12-03T09:04:46.827Z,10.40
2018-12-03T09:05:46.821Z,9.60
2018-12-03T09:06:46.805Z,9.90
2018-12-03T09:07:46.792Z,11.20
2018-12-03T09:08:46.796Z,11.20
2018-12-03T09:09:46.772Z,11.30
2018-12-03T09:10:46.762Z,11.00
2018-12-03T09:11:46.753Z,11.30
2018-12-03T09:12:46.739Z,11.10
2018-12-03T09:13:46.729Z,12.20
2018-12-03T09:14:46.725Z,11.40
2018-12-03T09:15:46.710Z,11.20
2018-12-03T09:16:46.702Z,10.80
2018-12-03T09:17:46.686Z,11.40
2018-12-03T09:18:46.675Z,11.60
2018-12-03T09:19:46.662Z,11.20
2018-12-03T09:20:46.656Z,11.90
2018-12-03T09:21:46.645Z,10.40
2018-12-03T09:22:46.629Z,11.00
2018-12-03T09:23:46.621Z,10.40
2018-12-03T09:24:46.603Z,10.00
2018-12-03T09:25:46.598Z,9.80
2018-12-03T09:26:46.584Z,8.90
2018-12-03T09:27:46.570Z,8.50
2018-12-03T09:28:46.562Z,10.20
2018-12-03T09:29:46.545Z,8.80
2018-12-03T09:30:46.537Z,8.60
2018-12-03T09:32:07.164Z,9.80
2018-12-03T09:33:28.565Z,6.80
2018-12-03T09:34:49.183Z,10.30
2018-12-03T09:36:10.605Z,6.60
2018-12-03T09:38:38.537Z,11.50
2018-12-03T09:39:38.529Z,9.80
2018-12-03T09:40:38.517Z,8.70
2018-12-03T09:41:38.504Z,8.40
2018-12-03T09:42:38.488Z,10.20
2018-12-03T09:43:38.478Z,12.20
2018-12-03T09:44:38.472Z,13.40
2018-12-03T09:45:38.464Z,13.40
2018-12-03T09:46:38.455Z,13.70
2018-12-03T09:47:38.434Z,13.80
2018-12-03T09:48:38.422Z,12.70
2018-12-03T09:49:38.415Z,13.90
2018-12-03T09:50:38.408Z,18.80
2018-12-03T09:51:38.395Z,19.80
2018-12-03T09:52:38.389Z,14.20
2018-12-03T09:53:38.370Z,14.60
2018-12-03T09:54:38.354Z,16.30
2018-12-03T09:55:38.348Z,17.70
2018-12-03T09:56:38.333Z,18.00
2018-12-03T09:57:38.322Z,17.30
2018-12-03T09:58:38.309Z,18.20
2018-12-03T09:59:38.303Z,17.90
2018-12-03T10:00:38.288Z,19.90
2018-12-03T10:01:38.287Z,18.80
2018-12-03T10:02:38.271Z,18.20
2018-12-03T10:03:38.261Z,19.60
2018-12-03T10:04:38.248Z,18.30
2018-12-03T10:05:38.231Z,18.80
2018-12-03T10:06:38.229Z,18.90
2018-12-03T10:07:38.216Z,19.60
2018-12-03T10:08:38.205Z,18.00
2018-12-03T10:09:38.187Z,18.70
2018-12-03T10:10:38.189Z,17.90
2018-12-03T10:11:38.168Z,19.30
2018-12-03T10:12:38.158Z,19.30
2018-12-03T10:13:38.148Z,18.90
2018-12-03T10:14:38.136Z,20.60
2018-12-03T10:15:38.121Z,19.40
2018-12-03T10:16:38.109Z,19.40
2018-12-03T10:17:38.097Z,18.70
2018-12-03T10:18:38.088Z,19.00
2018-12-03T10:19:38.080Z,18.10
2018-12-03T10:20:42.161Z,19.30
2018-12-03T10:21:38.053Z,19.60
2018-12-03T10:22:38.046Z,20.50
2018-12-03T10:23:38.043Z,20.40
2018-12-03T10:24:38.033Z,19.10
2018-12-03T10:25:38.008Z,20.70
2018-12-03T10:26:38.002Z,20.30
2018-12-03T10:27:37.990Z,19.60
2018-12-03T10:28:37.980Z,18.30
2018-12-03T10:29:37.964Z,18.50
2018-12-03T10:30:37.958Z,19.60
2018-12-03T10:31:37.948Z,19.30
2018-12-03T10:32:37.929Z,20.30
2018-12-03T10:33:37.923Z,20.20
2018-12-03T10:34:57.568Z,19.90
2018-12-03T10:36:19.969Z,17.70
2018-12-03T10:37:39.585Z,20.40
2018-12-03T10:39:01.485Z,14.90
2018-12-03T10:40:20.099Z,17.60
2018-12-03T10:41:01.461Z,17.40
2018-12-03T10:42:01.452Z,16.80
2018-12-03T10:43:01.433Z,16.30
2018-12-03T10:44:01.424Z,15.10
2018-12-03T10:45:01.420Z,12.30
2018-12-03T10:46:01.411Z,10.10
2018-12-03T10:47:01.392Z,10.70
2018-12-03T10:48:01.387Z,9.40
2018-12-03T10:49:02.154Z,9.20
2018-12-03T10:50:01.477Z,8.40
2018-12-03T10:51:01.352Z,8.70
2018-12-03T10:52:01.396Z,7.60
2018-12-03T10:53:01.325Z,7.50
2018-12-03T10:54:01.322Z,5.10
2018-12-03T10:55:01.332Z,5.10
2018-12-03T10:56:01.300Z,4.50
2018-12-03T10:57:01.289Z,4.70
2018-12-03T10:58:01.317Z,5.00
2018-12-03T10:59:01.294Z,4.60
2018-12-03T11:00:01.248Z,5.80
2018-12-03T11:01:01.239Z,6.80
2018-12-03T11:02:01.246Z,6.50
2018-12-03T11:03:01.222Z,5.30
2018-12-03T11:04:01.214Z,4.30
2018-12-03T11:05:01.196Z,4.20
2018-12-03T11:06:01.190Z,3.90
2018-12-03T11:07:01.170Z,7.00
2018-12-03T11:08:01.162Z,4.40
2018-12-03T11:09:01.153Z,4.20
2018-12-03T11:10:01.166Z,4.10
2018-12-03T11:11:01.126Z,5.20
2018-12-03T11:12:01.118Z,5.20
2018-12-03T11:13:20.750Z,4.80
2018-12-03T11:14:43.154Z,3.50
2018-12-03T11:15:43.134Z,6.40
2018-12-03T11:16:43.128Z,3.20
2018-12-03T11:17:43.114Z,3.90
2018-12-03T11:18:43.107Z,4.20
2018-12-03T11:19:43.102Z,4.40
2018-12-03T11:20:43.082Z,3.60
2018-12-03T11:21:43.067Z,4.00
2018-12-03T11:22:43.057Z,3.70
2018-12-03T11:23:43.053Z,3.40
2018-12-03T11:24:43.036Z,3.40
2018-12-03T11:25:43.032Z,4.70
2018-12-03T11:26:43.034Z,3.10
2018-12-03T11:27:43.029Z,3.40
2018-12-03T11:28:43.003Z,2.80
2018-12-03T11:29:42.981Z,3.30
2018-12-03T11:30:42.975Z,2.80
2018-12-03T11:31:43.009Z,4.20
2018-12-03T11:32:42.950Z,3.30
2018-12-03T11:33:42.932Z,2.90
2018-12-03T11:34:42.921Z,3.70
2018-12-03T11:35:42.911Z,3.40
2018-12-03T11:36:42.903Z,3.00
2018-12-03T11:37:42.900Z,5.30
2018-12-03T11:38:42.885Z,2.40
2018-12-03T11:39:42.867Z,2.50
2018-12-03T11:40:42.869Z,2.50
2018-12-03T11:41:42.850Z,2.30
2018-12-03T11:42:42.841Z,2.90
2018-12-03T11:43:42.826Z,4.20
2018-12-03T11:44:42.818Z,2.70
2018-12-03T11:45:42.812Z,3.70
2018-12-03T11:46:42.803Z,2.20
2018-12-03T11:47:42.789Z,3.00
2018-12-03T11:48:42.780Z,3.00
2018-12-03T11:49:42.767Z,2.50
2018-12-03T11:50:42.752Z,2.90
2018-12-03T11:51:42.749Z,2.80
2018-12-03T11:52:42.736Z,3.50
2018-12-03T11:53:42.715Z,3.00
2018-12-03T11:54:42.706Z,3.20
2018-12-03T11:55:42.692Z,2.90
2018-12-03T11:56:42.682Z,5.50
2018-12-03T11:57:42.681Z,6.30
2018-12-03T11:58:42.672Z,8.10
2018-12-03T11:59:42.652Z,8.00
2018-12-03T12:00:42.638Z,7.10
2018-12-03T12:01:42.628Z,5.20
2018-12-03T12:02:42.620Z,8.50
2018-12-03T12:03:42.992Z,6.70
2018-12-03T12:04:42.593Z,3.40
2018-12-03T12:05:42.584Z,3.40
2018-12-03T12:06:42.572Z,3.40
2018-12-03T12:07:42.602Z,3.70
2018-12-03T12:08:42.554Z,4.10
2018-12-03T12:09:42.550Z,3.60
2018-12-03T12:10:42.534Z,2.60
2018-12-03T12:11:42.526Z,2.50
2018-12-03T12:12:43.788Z,4.90
2018-12-03T12:13:42.492Z,3.50
2018-12-03T12:14:42.485Z,2.40
2018-12-03T12:15:42.465Z,3.10
2018-12-03T12:16:42.462Z,3.10
2018-12-03T12:17:42.448Z,3.10
2018-12-03T12:18:42.438Z,3.40
2018-12-03T12:19:42.426Z,3.80
2018-12-03T12:20:42.413Z,3.40
2018-12-03T12:21:42.398Z,5.00
2018-12-03T12:22:42.387Z,4.00
2018-12-03T12:23:42.376Z,2.90
2018-12-03T12:24:42.365Z,3.80
2018-12-03T12:25:42.358Z,2.50
2018-12-03T12:26:42.368Z,4.10
2018-12-03T12:27:42.343Z,3.60
2018-12-03T12:28:42.319Z,4.20
2018-12-03T12:29:42.307Z,4.00
2018-12-03T12:30:42.303Z,3.20
2018-12-03T12:31:42.286Z,3.60
2018-12-03T12:32:42.279Z,3.60
2018-12-03T12:33:42.271Z,2.80
2018-12-03T12:34:42.252Z,4.30
2018-12-03T12:35:42.245Z,3.10
2018-12-03T12:36:42.238Z,3.40
2018-12-03T12:37:42.223Z,5.50
2018-12-03T12:38:42.216Z,5.40
2018-12-03T12:39:42.203Z,4.40
2018-12-03T12:40:42.194Z,3.90
2018-12-03T12:41:42.175Z,3.20
2018-12-03T12:42:42.181Z,4.50
2018-12-03T12:43:42.150Z,5.70
2018-12-03T12:44:42.143Z,3.70
2018-12-03T12:45:42.133Z,4.50
2018-12-03T12:46:42.122Z,2.00
2018-12-03T12:47:42.110Z,3.40
2018-12-03T12:48:42.111Z,2.80
2018-12-03T12:49:42.093Z,4.00
2018-12-03T12:50:42.077Z,3.40
2018-12-03T12:51:42.080Z,5.40
2018-12-03T12:54:10.662Z,5.60
2018-12-03T12:55:10.661Z,4.70
2018-12-03T12:56:10.637Z,5.80
2018-12-03T12:57:10.626Z,7.20
2018-12-03T12:58:10.609Z,3.10
2018-12-03T13:00:38.553Z,12.40
2018-12-03T13:01:38.527Z,5.90
2018-12-03T13:02:38.521Z,4.20
2018-12-03T13:03:38.509Z,4.20
2018-12-03T13:04:56.641Z,4.90
2018-12-03T13:06:20.554Z,5.50
2018-12-03T13:07:41.108Z,3.80
2018-12-03T13:09:02.280Z,5.00
2018-12-03T13:10:02.264Z,4.30
2018-12-03T13:11:44.502Z,4.80
2018-12-03T13:12:44.559Z,4.00
2018-12-03T13:13:44.483Z,5.00
2018-12-03T13:14:44.468Z,4.80
2018-12-03T13:15:44.459Z,5.00
2018-12-03T13:16:44.454Z,4.70
2018-12-03T13:17:44.434Z,5.10
2018-12-03T13:18:44.422Z,4.10
2018-12-03T13:19:44.411Z,6.60
2018-12-03T13:20:44.403Z,5.70
2018-12-03T13:21:44.384Z,3.90
2018-12-03T13:22:44.373Z,5.20
2018-12-03T13:23:44.367Z,4.40
2018-12-03T13:24:44.355Z,5.30
2018-12-03T13:25:44.351Z,6.30
2018-12-03T13:26:44.327Z,5.60
2018-12-03T13:27:44.327Z,5.30
2018-12-03T13:28:44.305Z,5.40
2018-12-03T13:29:44.296Z,4.60
2018-12-03T13:30:44.339Z,5.90
2018-12-03T13:31:44.278Z,5.60
2018-12-03T13:32:44.269Z,6.40
2018-12-03T13:33:44.264Z,6.30